sensor_id;sensor_type;location;lat;lon;timestamp;P1;P2;P0
62981;PMS5003;49075;53.988;27.678;2022-10-29T00:04:39;64.8;51.8;32.8
62981;PMS5003;49075;53.988;27.678;2022-10-29T00:09:25;63.8;52.2;33.2
62981;PMS5003;49075;53.988;27.678;2022-10-29T00:14:14;62;50.8;33
62981;PMS5003;49075;53.988;27.678;2022-10-29T00:19:15;61;50;32.8
62981;PMS5003;49075;53.988;27.678;2022-10-29T00:24:17;68.3;54.8;34.8
62981;PMS5003;49075;53.988;27.678;2022-10-29T00:29:35;62.6;51;32.2
62981;PMS5003;49075;53.988;27.678;2022-10-29T00:34:13;59;48;30.4
62981;PMS5003;49075;53.988;27.678;2022-10-29T00:39:35;63.6;51.4;33
62981;PMS5003;49075;53.988;27.678;2022-10-29T00:44:21;65.2;52;33.6
62981;PMS5003;49075;53.988;27.678;2022-10-29T00:49:03;58.2;48.2;31
62981;PMS5003;49075;53.988;27.678;2022-10-29T00:54:12;63.2;51.6;32.6
62981;PMS5003;49075;53.988;27.678;2022-10-29T00:59:27;61;50.2;31.4
62981;PMS5003;49075;53.988;27.678;2022-10-29T01:04:23;57.8;47.4;30.8
62981;PMS5003;49075;53.988;27.678;2022-10-29T01:09:35;58.8;47.8;30.4
62981;PMS5003;49075;53.988;27.678;2022-10-29T01:14:04;57.8;47.6;30.2
62981;PMS5003;49075;53.988;27.678;2022-10-29T01:19:45;58.4;47.8;29.4
62981;PMS5003;49075;53.988;27.678;2022-10-29T01:25:34;53.4;44.8;28.6
62981;PMS5003;49075;53.988;27.678;2022-10-29T01:29:22;57;47.3;30.3
62981;PMS5003;49075;53.988;27.678;2022-10-29T01:34:42;58.4;47.8;30.4
62981;PMS5003;49075;53.988;27.678;2022-10-29T01:39:08;58.2;47.6;30.4
62981;PMS5003;49075;53.988;27.678;2022-10-29T01:44:42;57.8;48.2;30.6
62981;PMS5003;49075;53.988;27.678;2022-10-29T01:49:23;58;47.2;29.8
62981;PMS5003;49075;53.988;27.678;2022-10-29T01:54:42;59.6;47.8;30.2
62981;PMS5003;49075;53.988;27.678;2022-10-29T01:58:56;59.6;49;30.6
62981;PMS5003;49075;53.988;27.678;2022-10-29T02:04:28;61.8;50.4;32.6
62981;PMS5003;49075;53.988;27.678;2022-10-29T02:09:16;58.8;48.2;30.6
62981;PMS5003;49075;53.988;27.678;2022-10-29T02:14:32;58.2;47.2;29.2
62981;PMS5003;49075;53.988;27.678;2022-10-29T02:19:41;63.4;51;32.2
62981;PMS5003;49075;53.988;27.678;2022-10-29T02:23:55;60.8;48.8;31
62981;PMS5003;49075;53.988;27.678;2022-10-29T02:29:41;64.8;52.5;33.3
62981;PMS5003;49075;53.988;27.678;2022-10-29T02:34:39;63.8;51.8;33
62981;PMS5003;49075;53.988;27.678;2022-10-29T02:39:27;60.8;48.2;30.4
62981;PMS5003;49075;53.988;27.678;2022-10-29T02:44:17;63.2;50.6;31.8
62981;PMS5003;49075;53.988;27.678;2022-10-29T02:49:39;61.6;50;31.4
62981;PMS5003;49075;53.988;27.678;2022-10-29T02:54:07;60.2;49.2;31.8
62981;PMS5003;49075;53.988;27.678;2022-10-29T02:59:41;63.4;51.6;33.6
62981;PMS5003;49075;53.988;27.678;2022-10-29T03:04:41;61.2;49.8;31.2
62981;PMS5003;49075;53.988;27.678;2022-10-29T03:09:39;62.2;50.8;32
62981;PMS5003;49075;53.988;27.678;2022-10-29T03:13:55;61.6;49.8;32.4
62981;PMS5003;49075;53.988;27.678;2022-10-29T03:19:39;63.6;51.4;33
62981;PMS5003;49075;53.988;27.678;2022-10-29T03:24:19;69.6;55.6;35
62981;PMS5003;49075;53.988;27.678;2022-10-29T03:29:31;66;53.3;34
62981;PMS5003;49075;53.988;27.678;2022-10-29T03:34:29;65.2;52;33.4
62981;PMS5003;49075;53.988;27.678;2022-10-29T03:39:07;65.2;52.4;33.4
62981;PMS5003;49075;53.988;27.678;2022-10-29T03:44:07;65.4;53.6;33.4
62981;PMS5003;49075;53.988;27.678;2022-10-29T03:49:39;68.6;55.4;34.8
62981;PMS5003;49075;53.988;27.678;2022-10-29T03:54:39;63.6;52.4;33.6
62981;PMS5003;49075;53.988;27.678;2022-10-29T03:59:19;64.8;52.4;33.8
62981;PMS5003;49075;53.988;27.678;2022-10-29T04:04:29;66.6;54;34.2
62981;PMS5003;49075;53.988;27.678;2022-10-29T04:09:05;64.2;52.6;33.6
62981;PMS5003;49075;53.988;27.678;2022-10-29T04:14:37;62.8;50.6;32.8
62981;PMS5003;49075;53.988;27.678;2022-10-29T04:19:15;62.2;50.4;32
62981;PMS5003;49075;53.988;27.678;2022-10-29T04:24:07;63.4;51.4;33
62981;PMS5003;49075;53.988;27.678;2022-10-29T04:29:29;61.5;50.5;33
62981;PMS5003;49075;53.988;27.678;2022-10-29T04:34:07;62.6;51;32.6
62981;PMS5003;49075;53.988;27.678;2022-10-29T04:38:59;67;53.8;34.2
62981;PMS5003;49075;53.988;27.678;2022-10-29T04:44:29;67.4;54.4;33.4
62981;PMS5003;49075;53.988;27.678;2022-10-29T04:49:27;64.8;52.8;34
62981;PMS5003;49075;53.988;27.678;2022-10-29T04:54:29;69.2;55;35
62981;PMS5003;49075;53.988;27.678;2022-10-29T04:58:53;66.2;53;34.4
62981;PMS5003;49075;53.988;27.678;2022-10-29T05:04:37;66.8;54;34.6
62981;PMS5003;49075;53.988;27.678;2022-10-29T05:09:41;62.4;50.6;32.4
62981;PMS5003;49075;53.988;27.678;2022-10-29T05:14:19;62;49.8;31.6
62981;PMS5003;49075;53.988;27.678;2022-10-29T05:19:29;65.8;53;34
62981;PMS5003;49075;53.988;27.678;2022-10-29T05:24:07;64.6;52.6;33
62981;PMS5003;49075;53.988;27.678;2022-10-29T05:29:39;63.8;51.5;32
62981;PMS5003;49075;53.988;27.678;2022-10-29T05:34:17;66;53.2;33.6
62981;PMS5003;49075;53.988;27.678;2022-10-29T05:39:29;66.4;52.6;33.8
62981;PMS5003;49075;53.988;27.678;2022-10-29T05:44:17;68.8;55.6;35.2
62981;PMS5003;49075;53.988;27.678;2022-10-29T05:49:07;66;53.2;34.2
62981;PMS5003;49075;53.988;27.678;2022-10-29T05:54:15;65.8;52.4;33.8
62981;PMS5003;49075;53.988;27.678;2022-10-29T05:59:31;67.2;54.8;35.2
62981;PMS5003;49075;53.988;27.678;2022-10-29T06:04:27;67;54.2;33.8
62981;PMS5003;49075;53.988;27.678;2022-10-29T06:09:29;64.4;52.2;33.8
62981;PMS5003;49075;53.988;27.678;2022-10-29T06:14:07;66;53.2;34
62981;PMS5003;49075;53.988;27.678;2022-10-29T06:19:41;63.4;52;33.8
62981;PMS5003;49075;53.988;27.678;2022-10-29T06:24:39;64.4;52.4;33.6
62981;PMS5003;49075;53.988;27.678;2022-10-29T06:29:19;64.8;52.4;33.6
62981;PMS5003;49075;53.988;27.678;2022-10-29T06:34:27;68;55.8;35.3
62981;PMS5003;49075;53.988;27.678;2022-10-29T06:39:39;67.6;53.6;35
62981;PMS5003;49075;53.988;27.678;2022-10-29T06:44:41;66.2;53.8;34.6
62981;PMS5003;49075;53.988;27.678;2022-10-29T06:49:18;65.8;52.8;33.6
62981;PMS5003;49075;53.988;27.678;2022-10-29T06:54:19;68.2;54.4;34.4
62981;PMS5003;49075;53.988;27.678;2022-10-29T06:59:07;65.6;52.6;34
62981;PMS5003;49075;53.988;27.678;2022-10-29T07:04:17;64.8;53.2;34.4
62981;PMS5003;49075;53.988;27.678;2022-10-29T07:09:08;67.6;54.4;35.6
62981;PMS5003;49075;53.988;27.678;2022-10-29T07:14:31;65.2;52.6;34
62981;PMS5003;49075;53.988;27.678;2022-10-29T07:19:27;66.2;54.2;34.6
62981;PMS5003;49075;53.988;27.678;2022-10-29T07:24:31;64.8;51.6;33.2
62981;PMS5003;49075;53.988;27.678;2022-10-29T07:29:26;68.6;55.2;35
62981;PMS5003;49075;53.988;27.678;2022-10-29T07:34:41;65.8;52.8;34
62981;PMS5003;49075;53.988;27.678;2022-10-29T07:39:35;62.8;51.4;32.8
62981;PMS5003;49075;53.988;27.678;2022-10-29T07:44:05;66.4;53.2;34
62981;PMS5003;49075;53.988;27.678;2022-10-29T07:49:27;66.8;54.4;34.8
62981;PMS5003;49075;53.988;27.678;2022-10-29T07:54:05;69;56.2;35.4
62981;PMS5003;49075;53.988;27.678;2022-10-29T07:59:37;65.6;52.6;34
62981;PMS5003;49075;53.988;27.678;2022-10-29T08:04:15;66.8;53.8;34.6
62981;PMS5003;49075;53.988;27.678;2022-10-29T08:09:15;67;54.6;34.6
62981;PMS5003;49075;53.988;27.678;2022-10-29T08:14:29;64.4;51.8;34.4
62981;PMS5003;49075;53.988;27.678;2022-10-29T08:19:13;66.6;53.8;35.4
62981;PMS5003;49075;53.988;27.678;2022-10-29T08:24:25;68.2;54.4;34.8
62981;PMS5003;49075;53.988;27.678;2022-10-29T08:29:25;67.2;54;35
62981;PMS5003;49075;53.988;27.678;2022-10-29T08:34:39;68;55;35
62981;PMS5003;49075;53.988;27.678;2022-10-29T08:39:40;68.2;56.2;36.2
62981;PMS5003;49075;53.988;27.678;2022-10-29T08:44:11;66;53.4;35
62981;PMS5003;49075;53.988;27.678;2022-10-29T08:49:29;66.4;53.2;35.2
62981;PMS5003;49075;53.988;27.678;2022-10-29T08:54:18;64.6;53;34.6
62981;PMS5003;49075;53.988;27.678;2022-10-29T08:59:28;62.8;51.2;33.6
62981;PMS5003;49075;53.988;27.678;2022-10-29T09:04:42;63.4;52;34
62981;PMS5003;49075;53.988;27.678;2022-10-29T09:09:08;62.6;51.2;32.8
62981;PMS5003;49075;53.988;27.678;2022-10-29T09:14:18;66;53;34.8
62981;PMS5003;49075;53.988;27.678;2022-10-29T09:19:43;67.8;54.6;36.8
62981;PMS5003;49075;53.988;27.678;2022-10-29T09:24:17;64.4;52.2;34.6
62981;PMS5003;49075;53.988;27.678;2022-10-29T09:29:44;65.6;53.2;34.6
62981;PMS5003;49075;53.988;27.678;2022-10-29T09:34:13;66.5;53.5;34.8
62981;PMS5003;49075;53.988;27.678;2022-10-29T09:39:36;67.6;54.4;35.2
62981;PMS5003;49075;53.988;27.678;2022-10-29T09:44:27;65.4;52.6;34
62981;PMS5003;49075;53.988;27.678;2022-10-29T09:49:42;69;56;36.4
62981;PMS5003;49075;53.988;27.678;2022-10-29T09:54:38;63.2;50.8;33
62981;PMS5003;49075;53.988;27.678;2022-10-29T09:59:06;65;52.2;33.2
62981;PMS5003;49075;53.988;27.678;2022-10-29T10:04:25;64.6;52.4;34.6
62981;PMS5003;49075;53.988;27.678;2022-10-29T10:09:50;59.8;48.8;31
62981;PMS5003;49075;53.988;27.678;2022-10-29T10:14:19;62.4;50.6;33.6
62981;PMS5003;49075;53.988;27.678;2022-10-29T10:18:52;60.8;48.6;33.2
62981;PMS5003;49075;53.988;27.678;2022-10-29T10:24:08;66.6;53.2;34.8
62981;PMS5003;49075;53.988;27.678;2022-10-29T10:29:11;61.8;50;33
62981;PMS5003;49075;53.988;27.678;2022-10-29T10:34:38;64.3;51.8;33.5
62981;PMS5003;49075;53.988;27.678;2022-10-29T10:39:04;65.8;54.4;34
62981;PMS5003;49075;53.988;27.678;2022-10-29T10:44:40;65.8;52.6;34.6
62981;PMS5003;49075;53.988;27.678;2022-10-29T10:49:27;62.6;51;32.6
62981;PMS5003;49075;53.988;27.678;2022-10-29T10:54:25;62.4;51;33.4
62981;PMS5003;49075;53.988;27.678;2022-10-29T10:59:24;63;51;33.8
62981;PMS5003;49075;53.988;27.678;2022-10-29T11:04:38;62.8;50.6;33.6
62981;PMS5003;49075;53.988;27.678;2022-10-29T11:09:36;63.6;51.6;33.8
62981;PMS5003;49075;53.988;27.678;2022-10-29T11:14:38;62;50;32.4
62981;PMS5003;49075;53.988;27.678;2022-10-29T11:19:23;63.2;50.8;33.4
62981;PMS5003;49075;53.988;27.678;2022-10-29T11:24:17;62.6;50;32.8
62981;PMS5003;49075;53.988;27.678;2022-10-29T11:29:27;68.4;58.2;36.4
62981;PMS5003;49075;53.988;27.678;2022-10-29T11:34:04;63.8;51.8;33.8
62981;PMS5003;49075;53.988;27.678;2022-10-29T11:38:52;64.8;53.3;35.5
62981;PMS5003;49075;53.988;27.678;2022-10-29T11:44:10;67.2;53.8;35
62981;PMS5003;49075;53.988;27.678;2022-10-29T11:49:43;59;48.4;32.4
62981;PMS5003;49075;53.988;27.678;2022-10-29T11:54:20;61.2;49.8;31.8
62981;PMS5003;49075;53.988;27.678;2022-10-29T11:59:40;60.6;48.8;32.2
62981;PMS5003;49075;53.988;27.678;2022-10-29T12:04:38;61.4;50.2;32.8
62981;PMS5003;49075;53.988;27.678;2022-10-29T12:10:31;62.6;51;33.8
62981;PMS5003;49075;53.988;27.678;2022-10-29T12:14:24;59.4;48.4;32.2
62981;PMS5003;49075;53.988;27.678;2022-10-29T12:19:38;62.6;50;34
62981;PMS5003;49075;53.988;27.678;2022-10-29T12:24:28;61.2;49.8;32.6
62981;PMS5003;49075;53.988;27.678;2022-10-29T12:29:06;63;50.8;33.2
62981;PMS5003;49075;53.988;27.678;2022-10-29T12:34:39;59.4;48.2;31.6
62981;PMS5003;49075;53.988;27.678;2022-10-29T12:39:25;58.3;47.8;31.5
62981;PMS5003;49075;53.988;27.678;2022-10-29T12:44:24;61.6;49.2;32.2
62981;PMS5003;49075;53.988;27.678;2022-10-29T12:49:16;60;49.2;32
62981;PMS5003;49075;53.988;27.678;2022-10-29T12:54:10;62.4;50.2;32.2
62981;PMS5003;49075;53.988;27.678;2022-10-29T12:59:40;65.8;53;34.2
62981;PMS5003;49075;53.988;27.678;2022-10-29T13:04:36;65.4;53.8;34.8
62981;PMS5003;49075;53.988;27.678;2022-10-29T13:09:16;67;54.8;36
62981;PMS5003;49075;53.988;27.678;2022-10-29T13:14:37;62.2;49.2;32.8
62981;PMS5003;49075;53.988;27.678;2022-10-29T13:19:06;63.6;51.6;33
62981;PMS5003;49075;53.988;27.678;2022-10-29T13:24:20;63.3;51.3;33.5
62981;PMS5003;49075;53.988;27.678;2022-10-29T13:29:08;62;50.6;33.6
62981;PMS5003;49075;53.988;27.678;2022-10-29T13:39:32;65.3;52.8;33.8
62981;PMS5003;49075;53.988;27.678;2022-10-29T13:44:26;62.8;50.8;32.8
62981;PMS5003;49075;53.988;27.678;2022-10-29T13:49:32;65.2;52.4;33.4
62981;PMS5003;49075;53.988;27.678;2022-10-29T13:54:22;62;50.4;32.8
62981;PMS5003;49075;53.988;27.678;2022-10-29T13:59:27;64;52.4;33.6
62981;PMS5003;49075;53.988;27.678;2022-10-29T14:04:16;61.8;50.8;33.5
62981;PMS5003;49075;53.988;27.678;2022-10-29T14:09:18;63.6;51.8;34.4
62981;PMS5003;49075;53.988;27.678;2022-10-29T14:14:36;67.4;56;36.6
62981;PMS5003;49075;53.988;27.678;2022-10-29T14:19:41;67.2;54.6;34.4
62981;PMS5003;49075;53.988;27.678;2022-10-29T14:24:40;64.2;52.4;33.6
62981;PMS5003;49075;53.988;27.678;2022-10-29T14:29:40;62.6;50.4;33
62981;PMS5003;49075;53.988;27.678;2022-10-29T14:34:40;62.4;50.2;33
62981;PMS5003;49075;53.988;27.678;2022-10-29T14:39:22;60.4;50;32.4
62981;PMS5003;49075;53.988;27.678;2022-10-29T14:44:10;62.4;50.6;33.4
62981;PMS5003;49075;53.988;27.678;2022-10-29T14:49:18;61.2;49.8;32.8
62981;PMS5003;49075;53.988;27.678;2022-10-29T14:54:38;59.6;49;31.8
62981;PMS5003;49075;53.988;27.678;2022-10-29T14:59:38;63.2;51.4;33.6
62981;PMS5003;49075;53.988;27.678;2022-10-29T15:04:44;64.5;52;34.3
62981;PMS5003;49075;53.988;27.678;2022-10-29T15:09:24;63;51.2;32.6
62981;PMS5003;49075;53.988;27.678;2022-10-29T15:14:31;59;48.2;31.2
62981;PMS5003;49075;53.988;27.678;2022-10-29T15:19:16;60.8;50;32.8
62981;PMS5003;49075;53.988;27.678;2022-10-29T15:23:53;58.8;47.8;31.2
62981;PMS5003;49075;53.988;27.678;2022-10-29T15:29:10;73;64.8;41.4
62981;PMS5003;49075;53.988;27.678;2022-10-29T15:34:43;62.8;52.2;34.4
62981;PMS5003;49075;53.988;27.678;2022-10-29T15:39:17;55.4;45.8;29
62981;PMS5003;49075;53.988;27.678;2022-10-29T15:44:38;58;47.8;31
62981;PMS5003;49075;53.988;27.678;2022-10-29T15:49:40;55;45.4;30.4
62981;PMS5003;49075;53.988;27.678;2022-10-29T15:54:26;53.4;44.8;29.6
62981;PMS5003;49075;53.988;27.678;2022-10-29T15:59:10;54;44.4;29.2
62981;PMS5003;49075;53.988;27.678;2022-10-29T16:04:32;72.8;64.5;41.5
62981;PMS5003;49075;53.988;27.678;2022-10-29T16:09:38;51.2;42.4;27.2
62981;PMS5003;49075;53.988;27.678;2022-10-29T16:14:07;50.8;42.2;28.4
62981;PMS5003;49075;53.988;27.678;2022-10-29T16:19:40;51.4;43.4;28.2
62981;PMS5003;49075;53.988;27.678;2022-10-29T16:24:26;50.2;41.6;27.8
62981;PMS5003;49075;53.988;27.678;2022-10-29T16:29:26;46.6;39.8;26.8
62981;PMS5003;49075;53.988;27.678;2022-10-29T16:34:08;45.2;37.8;26
62981;PMS5003;49075;53.988;27.678;2022-10-29T16:39:18;41.2;36.6;24.8
62981;PMS5003;49075;53.988;27.678;2022-10-29T16:44:26;38.4;34;24
62981;PMS5003;49075;53.988;27.678;2022-10-29T16:49:42;41.4;35.4;24.2
62981;PMS5003;49075;53.988;27.678;2022-10-29T16:54:06;37.4;34;23.2
62981;PMS5003;49075;53.988;27.678;2022-10-29T16:59:40;34.8;31;22.4
62981;PMS5003;49075;53.988;27.678;2022-10-29T17:04:06;33.6;31.6;22.2
62981;PMS5003;49075;53.988;27.678;2022-10-29T17:09:22;37;32.8;23.5
62981;PMS5003;49075;53.988;27.678;2022-10-29T17:14:12;38.2;33.4;22.6
62981;PMS5003;49075;53.988;27.678;2022-10-29T17:19:30;37;33;22.8
62981;PMS5003;49075;53.988;27.678;2022-10-29T17:24:38;29.2;27.4;20.4
62981;PMS5003;49075;53.988;27.678;2022-10-29T17:29:40;33.2;31.4;22.4
62981;PMS5003;49075;53.988;27.678;2022-10-29T17:34:40;24.2;23.4;17.2
62981;PMS5003;49075;53.988;27.678;2022-10-29T17:39:38;26.8;26.4;19.4
62981;PMS5003;49075;53.988;27.678;2022-10-29T17:44:26;29.3;27.7;19.3
62981;PMS5003;49075;53.988;27.678;2022-10-29T17:49:16;35;30.5;23.5
62981;PMS5003;49075;53.988;27.678;2022-10-29T17:54:38;31.2;29;20
62981;PMS5003;49075;53.988;27.678;2022-10-29T17:59:12;23.6;23.2;17.6
62981;PMS5003;49075;53.988;27.678;2022-10-29T18:04:40;27.2;26;19
62981;PMS5003;49075;53.988;27.678;2022-10-29T18:09:38;25;24.3;19.3
62981;PMS5003;49075;53.988;27.678;2022-10-29T18:14:38;27.8;27;19.8
62981;PMS5003;49075;53.988;27.678;2022-10-29T18:18:55;24.4;24;17.4
62981;PMS5003;49075;53.988;27.678;2022-10-29T18:24:26;49;43;29.4
62981;PMS5003;49075;53.988;27.678;2022-10-29T18:29:10;44.8;38.5;26
62981;PMS5003;49075;53.988;27.678;2022-10-29T18:34:32;28.4;27.4;19.4
62981;PMS5003;49075;53.988;27.678;2022-10-29T18:39:40;25.8;25.4;18.8
62981;PMS5003;49075;53.988;27.678;2022-10-29T18:44:06;29.2;28.4;21.4
62981;PMS5003;49075;53.988;27.678;2022-10-29T18:49:26;24.6;24;18
62981;PMS5003;49075;53.988;27.678;2022-10-29T18:54:26;26;25.8;19.4
62981;PMS5003;49075;53.988;27.678;2022-10-29T18:59:24;30.2;27.8;20.2
62981;PMS5003;49075;53.988;27.678;2022-10-29T19:04:16;67.8;59.8;39.2
62981;PMS5003;49075;53.988;27.678;2022-10-29T19:09:07;33.8;31.3;23
62981;PMS5003;49075;53.988;27.678;2022-10-29T19:14:12;29.6;29.4;21.8
62981;PMS5003;49075;53.988;27.678;2022-10-29T19:19:38;53.8;46.4;32
62981;PMS5003;49075;53.988;27.678;2022-10-29T19:24:18;71;67.2;45.2
62981;PMS5003;49075;53.988;27.678;2022-10-29T19:29:40;28.8;28.6;21
62981;PMS5003;49075;53.988;27.678;2022-10-29T19:34:10;26.4;25.2;18.8
62981;PMS5003;49075;53.988;27.678;2022-10-29T19:39:24;95;89.2;58
62981;PMS5003;49075;53.988;27.678;2022-10-29T19:44:10;51.2;42.4;28.8
62981;PMS5003;49075;53.988;27.678;2022-10-29T19:49:30;28.2;27.4;21
62981;PMS5003;49075;53.988;27.678;2022-10-29T19:54:38;48;45.4;29.6
62981;PMS5003;49075;53.988;27.678;2022-10-29T19:59:32;30;28.8;20.6
62981;PMS5003;49075;53.988;27.678;2022-10-29T20:04:40;52.8;46.8;32
62981;PMS5003;49075;53.988;27.678;2022-10-29T20:09:22;54.2;51.4;34.8
62981;PMS5003;49075;53.988;27.678;2022-10-29T20:14:26;23.8;23.3;16.8
62981;PMS5003;49075;53.988;27.678;2022-10-29T20:19:38;19.3;19.3;14.8
62981;PMS5003;49075;53.988;27.678;2022-10-29T20:24:18;20.2;19.6;15.6
62981;PMS5003;49075;53.988;27.678;2022-10-29T20:29:10;24;23.6;18.2
62981;PMS5003;49075;53.988;27.678;2022-10-29T20:34:40;18.6;18.2;14.8
62981;PMS5003;49075;53.988;27.678;2022-10-29T20:39:18;31;27.8;20
62981;PMS5003;49075;53.988;27.678;2022-10-29T20:44:38;24.8;23;17.8
62981;PMS5003;49075;53.988;27.678;2022-10-29T20:49:00;22.4;21.8;17.6
62981;PMS5003;49075;53.988;27.678;2022-10-29T20:54:26;18.6;18.4;15
62981;PMS5003;49075;53.988;27.678;2022-10-29T20:59:10;17.8;17;14
62981;PMS5003;49075;53.988;27.678;2022-10-29T21:04:32;20.4;19;14
62981;PMS5003;49075;53.988;27.678;2022-10-29T21:09:38;44;40.7;28
62981;PMS5003;49075;53.988;27.678;2022-10-29T21:13:54;19.5;18.8;14.8
62981;PMS5003;49075;53.988;27.678;2022-10-29T21:19:38;16.8;16.4;13.8
62981;PMS5003;49075;53.988;27.678;2022-10-29T21:24:24;18.8;18.5;14.8
62981;PMS5003;49075;53.988;27.678;2022-10-29T21:29:26;13;12.8;10.8
62981;PMS5003;49075;53.988;27.678;2022-10-29T21:34:40;20.3;20;16
62981;PMS5003;49075;53.988;27.678;2022-10-29T21:39:06;18.3;18.3;15
62981;PMS5003;49075;53.988;27.678;2022-10-29T21:44:06;13.2;13.2;10.6
62981;PMS5003;49075;53.988;27.678;2022-10-29T21:49:38;13.2;13.2;10.6
62981;PMS5003;49075;53.988;27.678;2022-10-29T21:54:18;14.2;13.6;11
62981;PMS5003;49075;53.988;27.678;2022-10-29T21:59:38;20;19.6;14.4
62981;PMS5003;49075;53.988;27.678;2022-10-29T22:04:36;18.4;18;14.4
62981;PMS5003;49075;53.988;27.678;2022-10-29T22:09:20;13.6;13;10.4
62981;PMS5003;49075;53.988;27.678;2022-10-29T22:14:08;12.8;12.6;10.2
62981;PMS5003;49075;53.988;27.678;2022-10-29T22:19:16;13;12.8;10.2
62981;PMS5003;49075;53.988;27.678;2022-10-29T22:24:34;16;16;12.6
62981;PMS5003;49075;53.988;27.678;2022-10-29T22:29:02;16.4;16.4;13.6
62981;PMS5003;49075;53.988;27.678;2022-10-29T22:34:36;14.8;14.8;11.8
62981;PMS5003;49075;53.988;27.678;2022-10-29T22:39:20;13.8;13.8;11.8
62981;PMS5003;49075;53.988;27.678;2022-10-29T22:44:22;18.5;17.5;14.5
62981;PMS5003;49075;53.988;27.678;2022-10-29T22:49:06;12.4;12.4;10
62981;PMS5003;49075;53.988;27.678;2022-10-29T22:54:14;29;26.6;18.4
62981;PMS5003;49075;53.988;27.678;2022-10-29T22:59:36;17;16.4;13.4
62981;PMS5003;49075;53.988;27.678;2022-10-29T23:04:34;13.8;13.5;10.8
62981;PMS5003;49075;53.988;27.678;2022-10-29T23:29:08;13.5;13.5;12
62981;PMS5003;49075;53.988;27.678;2022-10-29T23:34:34;16.5;16;12.5
62981;PMS5003;49075;53.988;27.678;2022-10-29T23:39:34;17;17;13.4
62981;PMS5003;49075;53.988;27.678;2022-10-29T23:43:54;15.2;14.8;11.2
62981;PMS5003;49075;53.988;27.678;2022-10-29T23:49:34;13.5;13.3;11.5
62981;PMS5003;49075;53.988;27.678;2022-10-29T23:54:20;10.2;9.8;8.6
62981;PMS5003;49075;53.988;27.678;2022-10-29T23:59:16;16;15.6;12.8
